createdAt,value
2018-12-19T00:02:48.213Z,101232.27
2018-12-19T00:05:39.817Z,101237.72
2018-12-19T00:08:29.733Z,101246.05
2018-12-19T00:11:19.618Z,101241.62
2018-12-19T00:14:10.315Z,101244.36
2018-12-19T00:17:00.314Z,101245.15
2018-12-19T00:19:50.191Z,101254.62
2018-12-19T00:22:40.146Z,101252.60
2018-12-19T00:25:31.479Z,101247.40
2018-12-19T00:28:23.908Z,101252.05
2018-12-19T00:31:15.927Z,101251.00
2018-12-19T00:34:08.335Z,101253.44
2018-12-19T00:36:58.560Z,101255.64
2018-12-19T00:39:48.619Z,101257.77
2018-12-19T00:42:39.539Z,101254.83
2018-12-19T00:45:29.466Z,101260.41
2018-12-19T00:48:19.284Z,101254.89
2018-12-19T00:51:09.195Z,101258.72
2018-12-19T00:53:58.984Z,101254.45
2018-12-19T00:56:49.119Z,101263.94
2018-12-19T00:59:39.776Z,101260.92
2018-12-19T01:02:29.617Z,101262.50
2018-12-19T01:05:19.363Z,101260.05
2018-12-19T01:08:09.607Z,101266.88
2018-12-19T01:11:00.322Z,101260.40
2018-12-19T01:13:51.107Z,101255.84
2018-12-19T01:16:41.130Z,101258.61
2018-12-19T01:19:31.924Z,101255.89
2018-12-19T01:22:21.983Z,101259.94
2018-12-19T01:25:12.809Z,101263.14
2018-12-19T01:28:02.591Z,101265.59
2018-12-19T01:30:53.270Z,101257.41
2018-12-19T01:33:43.052Z,101257.37
2018-12-19T01:36:32.950Z,101249.94
2018-12-19T01:39:22.791Z,101253.23
2018-12-19T01:42:12.626Z,101252.92
2018-12-19T01:45:02.580Z,101245.16
2018-12-19T01:47:52.834Z,101243.54
2018-12-19T01:50:43.375Z,101239.66
2018-12-19T01:53:34.145Z,101232.94
2018-12-19T01:56:24.934Z,101232.12
2018-12-19T01:59:14.673Z,101236.27
2018-12-19T02:02:04.666Z,101241.70
2018-12-19T02:04:54.606Z,101242.80
2018-12-19T02:07:44.659Z,101241.95
2018-12-19T02:10:35.170Z,101237.98
2018-12-19T02:13:25.043Z,101240.14
2018-12-19T02:16:14.764Z,101241.70
2018-12-19T02:19:04.969Z,101237.43
2018-12-19T02:21:54.933Z,101236.91
2018-12-19T02:24:45.751Z,101220.62
2018-12-19T02:27:35.524Z,101238.27
2018-12-19T02:30:26.296Z,101239.08
2018-12-19T02:33:16.903Z,101238.17
2018-12-19T02:36:07.227Z,101239.16
2018-12-19T02:38:57.956Z,101239.10
2018-12-19T02:41:47.978Z,101242.70
2018-12-19T02:44:38.676Z,101238.73
2018-12-19T02:47:28.474Z,101240.13
2018-12-19T02:50:18.632Z,101245.70
2018-12-19T02:53:09.506Z,101241.02
2018-12-19T02:56:00.099Z,101238.17
2018-12-19T02:58:50.138Z,101247.70
2018-12-19T03:01:40.854Z,101242.70
2018-12-19T03:04:30.806Z,101247.26
2018-12-19T03:07:21.347Z,101249.78
2018-12-19T03:10:11.403Z,101252.95
2018-12-19T03:13:03.251Z,101248.16
2018-12-19T03:15:53.216Z,101255.26
2018-12-19T03:18:43.739Z,101250.77
2018-12-19T03:21:33.723Z,101252.51
2018-12-19T03:24:24.515Z,101261.79
2018-12-19T03:27:15.191Z,101258.85
2018-12-19T03:30:05.136Z,101267.98
2018-12-19T03:32:55.217Z,101274.81
2018-12-19T03:35:45.192Z,101265.23
2018-12-19T03:38:35.896Z,101276.49
2018-12-19T03:41:25.629Z,101275.75
2018-12-19T03:44:15.790Z,101276.49
2018-12-19T03:47:06.233Z,101276.36
2018-12-19T03:49:56.371Z,101281.44
2018-12-19T03:52:46.144Z,101281.96
2018-12-19T03:55:35.907Z,101288.33
2018-12-19T03:58:25.813Z,101294.41
2018-12-19T04:01:15.677Z,101300.53
2018-12-19T04:04:05.654Z,101294.87
2018-12-19T04:06:56.435Z,101304.73
2018-12-19T04:09:46.212Z,101303.83
2018-12-19T04:12:36.013Z,101310.23
2018-12-19T04:15:25.922Z,101307.45
2018-12-19T04:18:15.695Z,101306.05
2018-12-19T04:21:05.624Z,101316.28
2018-12-19T04:23:55.489Z,101311.66
2018-12-19T04:26:45.503Z,101317.41
2018-12-19T04:29:36.216Z,101318.19
2018-12-19T04:32:27.661Z,101322.53
2018-12-19T04:35:18.377Z,101326.53
2018-12-19T04:38:08.095Z,101329.97
2018-12-19T04:40:58.272Z,101331.20
2018-12-19T04:43:48.119Z,101334.72
2018-12-19T04:46:39.446Z,101339.50
2018-12-19T04:49:29.537Z,101338.05
2018-12-19T04:52:19.338Z,101339.63
2018-12-19T04:55:09.400Z,101347.69
2018-12-19T04:58:00.287Z,101347.17
2018-12-19T05:00:51.128Z,101348.74
2018-12-19T05:03:41.402Z,101353.11
2018-12-19T05:06:31.993Z,101357.68
2018-12-19T05:09:21.987Z,101351.38
2018-12-19T05:12:11.883Z,101359.69
2018-12-19T05:15:02.614Z,101361.70
2018-12-19T05:17:52.415Z,101363.94
2018-12-19T05:20:42.346Z,101369.83
2018-12-19T05:23:32.061Z,101378.09
2018-12-19T05:26:22.891Z,101381.91
2018-12-19T05:29:13.622Z,101383.48
2018-12-19T05:32:03.712Z,101388.02
2018-12-19T05:34:54.307Z,101397.03
2018-12-19T05:37:44.308Z,101396.56
2018-12-19T05:40:37.718Z,101397.53
2018-12-19T05:43:27.907Z,101404.66
2018-12-19T05:46:21.410Z,101402.27
2018-12-19T05:49:13.637Z,101405.98
2018-12-19T05:52:03.557Z,101413.00
2018-12-19T05:54:54.670Z,101416.34
2018-12-19T05:57:45.624Z,101415.14
2018-12-19T06:00:36.299Z,101413.81
2018-12-19T06:03:27.983Z,101425.86
2018-12-19T06:06:18.983Z,101427.06
2018-12-19T06:09:08.899Z,101430.46
2018-12-19T06:11:58.902Z,101435.34
2018-12-19T06:14:50.523Z,101436.57
2018-12-19T06:17:41.363Z,101443.85
2018-12-19T06:20:31.005Z,101443.53
2018-12-19T06:23:20.797Z,101451.89
2018-12-19T06:26:11.003Z,101456.92
2018-12-19T06:29:06.720Z,101457.65
2018-12-19T06:31:56.942Z,101460.66
2018-12-19T06:34:47.738Z,101466.55
2018-12-19T06:37:38.340Z,101472.12
2018-12-19T06:40:32.630Z,101473.80
2018-12-19T06:43:20.099Z,101476.11
2018-12-19T06:46:10.151Z,101483.38
2018-12-19T06:48:59.830Z,101487.58
2018-12-19T06:51:49.707Z,101487.00
2018-12-19T06:54:39.534Z,101491.98
2018-12-19T06:57:29.702Z,101491.69
2018-12-19T07:00:20.279Z,101493.06
2018-12-19T07:03:10.141Z,101498.17
2018-12-19T07:05:59.920Z,101508.72
2018-12-19T07:08:49.957Z,101508.64
2018-12-19T07:11:39.880Z,101517.42
2018-12-19T07:14:29.798Z,101512.16
2018-12-19T07:17:20.302Z,101519.20
2018-12-19T07:20:10.167Z,101517.51
2018-12-19T07:23:00.155Z,101525.73
2018-12-19T07:25:50.021Z,101534.25
2018-12-19T07:28:40.833Z,101533.51
2018-12-19T07:31:30.910Z,101538.70
2018-12-19T07:34:20.818Z,101531.94
2018-12-19T07:37:10.756Z,101538.53
2018-12-19T07:40:00.605Z,101551.81
2018-12-19T07:42:50.817Z,101552.30
2018-12-19T07:45:40.899Z,101563.16
2018-12-19T07:48:31.722Z,101566.76
2018-12-19T07:51:21.695Z,101565.39
2018-12-19T07:54:13.231Z,101574.53
2018-12-19T07:57:04.181Z,101572.42
2018-12-19T07:59:54.093Z,101576.80
2018-12-19T08:02:45.029Z,101584.51
2018-12-19T08:05:35.102Z,101584.93
2018-12-19T08:08:25.708Z,101589.43
2018-12-19T08:11:15.594Z,101586.81
2018-12-19T08:14:05.894Z,101582.67
2018-12-19T08:16:56.530Z,101588.08
2018-12-19T08:19:47.330Z,101590.32
2018-12-19T08:22:38.030Z,101590.19
2018-12-19T08:25:27.963Z,101584.48
2018-12-19T08:28:17.935Z,101586.86
2018-12-19T08:31:07.977Z,101588.38
2018-12-19T08:33:57.783Z,101590.22
2018-12-19T08:36:47.661Z,101590.80
2018-12-19T08:39:37.551Z,101599.16
2018-12-19T08:42:27.473Z,101600.82
2018-12-19T08:45:18.283Z,101598.16
2018-12-19T08:48:08.075Z,101603.05
2018-12-19T08:50:57.874Z,101604.80
2018-12-19T08:53:48.069Z,101601.36
2018-12-19T08:56:38.079Z,101598.70
2018-12-19T08:59:27.955Z,101598.05
2018-12-19T09:02:17.887Z,101593.92
2018-12-19T09:05:07.671Z,101595.23
2018-12-19T09:07:57.755Z,101591.91
2018-12-19T09:10:47.954Z,101590.19
2018-12-19T09:13:38.850Z,101595.98
2018-12-19T09:16:28.675Z,101591.15
2018-12-19T09:19:18.855Z,101597.22
2018-12-19T09:22:08.848Z,101593.39
2018-12-19T09:24:58.749Z,101594.58
2018-12-19T09:27:49.498Z,101591.67
2018-12-19T09:30:39.279Z,101591.38
2018-12-19T09:33:29.096Z,101586.30
2018-12-19T09:36:19.175Z,101593.39
2018-12-19T09:39:09.906Z,101595.41
2018-12-19T09:41:59.856Z,101583.84
2018-12-19T09:44:49.778Z,101577.09
2018-12-19T09:47:39.714Z,101574.03
2018-12-19T09:50:30.617Z,101571.22
2018-12-19T09:53:20.869Z,101574.27
2018-12-19T09:56:11.582Z,101571.47
2018-12-19T09:59:02.394Z,101575.36
2018-12-19T10:01:52.999Z,101569.77
2018-12-19T10:04:47.298Z,101568.65
2018-12-19T10:07:38.059Z,101576.87
2018-12-19T10:10:28.011Z,101576.28
2018-12-19T10:13:19.063Z,101571.63
2018-12-19T10:16:09.647Z,101575.20
2018-12-19T10:19:00.034Z,101573.89
2018-12-19T10:21:50.112Z,101568.49
2018-12-19T10:24:45.034Z,101570.20
2018-12-19T10:27:35.182Z,101566.58
2018-12-19T10:30:25.795Z,101571.30
2018-12-19T10:33:15.611Z,101571.88
2018-12-19T10:36:05.323Z,101571.14
2018-12-19T10:38:56.020Z,101557.62
2018-12-19T10:41:46.493Z,101567.55
2018-12-19T10:44:36.638Z,101569.95
2018-12-19T10:47:28.414Z,101566.72
2018-12-19T10:50:18.386Z,101571.47
2018-12-19T10:53:09.049Z,101571.67
2018-12-19T10:55:58.957Z,101563.32
2018-12-19T10:58:49.757Z,101562.58
2018-12-19T11:01:39.645Z,101555.33
2018-12-19T11:04:29.753Z,101559.64
2018-12-19T11:07:19.609Z,101556.04
2018-12-19T11:10:11.238Z,101552.09
2018-12-19T11:13:01.499Z,101550.12
2018-12-19T11:15:51.411Z,101543.30
2018-12-19T11:18:41.210Z,101552.78
2018-12-19T11:21:31.091Z,101548.61
2018-12-19T11:24:21.518Z,101551.81
2018-12-19T11:27:11.899Z,101552.40
2018-12-19T11:30:02.743Z,101552.05
2018-12-19T11:32:52.688Z,101547.31
2018-12-19T11:35:42.619Z,101550.66
2018-12-19T11:38:32.458Z,101548.19
2018-12-19T11:41:22.542Z,101549.03
2018-12-19T11:44:13.257Z,101551.81
2018-12-19T11:47:03.205Z,101549.36
2018-12-19T11:49:53.022Z,101546.63
2018-12-19T11:52:42.994Z,101551.69
2018-12-19T11:55:32.853Z,101540.19
2018-12-19T11:58:22.951Z,101549.58
2018-12-19T12:01:12.761Z,101545.89
2018-12-19T12:04:03.008Z,101542.66
2018-12-19T12:06:54.588Z,101545.86
2018-12-19T12:09:44.763Z,101542.48
2018-12-19T12:12:35.491Z,101544.34
2018-12-19T12:15:25.385Z,101541.68
2018-12-19T12:18:15.167Z,101546.18
2018-12-19T12:21:05.095Z,101550.45
2018-12-19T12:23:54.955Z,101552.47
2018-12-19T12:26:44.945Z,101549.44
2018-12-19T12:29:35.620Z,101545.39
2018-12-19T12:32:25.355Z,101546.70
2018-12-19T12:35:15.154Z,101551.87
2018-12-19T12:38:05.073Z,101546.73
2018-12-19T12:40:55.958Z,101557.12
2018-12-19T12:43:46.675Z,101550.34
2018-12-19T12:46:36.543Z,101546.35
2018-12-19T12:49:26.774Z,101547.61
2018-12-19T12:52:17.562Z,101547.16
2018-12-19T12:55:08.513Z,101547.96
2018-12-19T12:57:59.118Z,101552.19
2018-12-19T13:00:49.841Z,101559.98
2018-12-19T13:03:39.567Z,101557.50
2018-12-19T13:06:29.657Z,101565.48
2018-12-19T13:09:19.432Z,101554.27
2018-12-19T13:12:09.263Z,101562.44
2018-12-19T13:14:59.118Z,101563.57
2018-12-19T13:17:49.820Z,101556.88
2018-12-19T13:20:40.044Z,101562.31
2018-12-19T13:23:30.147Z,101571.52
2018-12-19T13:26:19.908Z,101559.47
2018-12-19T13:29:10.062Z,101570.98
2018-12-19T13:32:01.591Z,101569.11
2018-12-19T13:34:51.607Z,101571.52
2018-12-19T13:37:41.566Z,101569.63
2018-12-19T13:40:31.618Z,101583.07
2018-12-19T13:43:22.489Z,101577.58
2018-12-19T13:46:14.026Z,101577.82
2018-12-19T13:49:03.727Z,101583.07
2018-12-19T13:51:53.616Z,101589.06
2018-12-19T13:54:43.565Z,101597.46
2018-12-19T13:57:33.519Z,101595.92
2018-12-19T14:00:23.531Z,101604.22
2018-12-19T14:03:13.471Z,101599.63
2018-12-19T14:06:04.299Z,101603.31
2018-12-19T14:08:54.605Z,101603.98
2018-12-19T14:11:44.884Z,101609.30
2018-12-19T14:14:34.829Z,101610.55
2018-12-19T14:17:24.650Z,101616.87
2018-12-19T14:20:14.439Z,101622.41
2018-12-19T14:23:04.414Z,101628.84
2018-12-19T14:25:55.242Z,101633.50
2018-12-19T14:28:45.946Z,101639.04
2018-12-19T14:31:36.015Z,101629.97
2018-12-19T14:34:25.790Z,101628.98
2018-12-19T14:37:16.469Z,101630.70
2018-12-19T14:40:06.567Z,101633.30
2018-12-19T14:42:57.474Z,101634.70
2018-12-19T14:45:48.298Z,101637.05
2018-12-19T14:48:39.078Z,101640.70
2018-12-19T14:51:28.941Z,101636.70
2018-12-19T14:54:18.830Z,101641.12
2018-12-19T14:57:10.466Z,101637.58
2018-12-19T15:00:00.364Z,101636.25
2018-12-19T15:02:51.102Z,101640.77
2018-12-19T15:05:41.184Z,101643.50
2018-12-19T15:08:30.788Z,101643.23
2018-12-19T15:11:21.763Z,101646.98
2018-12-19T15:14:12.434Z,101647.30
2018-12-19T15:17:02.467Z,101646.83
2018-12-19T15:19:52.386Z,101649.50
2018-12-19T15:22:42.327Z,101650.97
2018-12-19T15:25:32.964Z,101654.83
2018-12-19T15:28:23.707Z,101669.85
2018-12-19T15:31:14.682Z,101672.27
2018-12-19T15:34:04.568Z,101673.11
2018-12-19T15:36:54.411Z,101683.69
2018-12-19T15:39:44.376Z,101687.09
2018-12-19T15:42:34.267Z,101694.23
2018-12-19T15:45:24.161Z,101689.95
2018-12-19T15:48:14.198Z,101693.56
2018-12-19T15:51:04.125Z,101693.41
2018-12-19T15:53:53.910Z,101698.84
2018-12-19T15:56:44.015Z,101698.52
2018-12-19T15:59:34.070Z,101710.95
2018-12-19T16:02:24.129Z,101709.61
2018-12-19T16:05:13.991Z,101711.08
2018-12-19T16:08:03.988Z,101711.28
2018-12-19T16:10:54.675Z,101710.05
2018-12-19T16:13:45.115Z,101711.97
2018-12-19T16:16:35.979Z,101709.08
2018-12-19T16:19:26.664Z,101711.87
2018-12-19T16:22:16.504Z,101716.77
2018-12-19T16:25:07.096Z,101723.03
2018-12-19T16:27:57.543Z,101715.22
2018-12-19T16:30:48.360Z,101720.08
2018-12-19T16:33:39.122Z,101719.53
2018-12-19T16:36:29.039Z,101725.92
2018-12-19T16:39:19.060Z,101726.19
2018-12-19T16:42:09.998Z,101727.25
2018-12-19T16:45:01.612Z,101725.14
2018-12-19T16:47:51.674Z,101727.64
2018-12-19T16:50:41.673Z,101721.83
2018-12-19T16:53:31.640Z,101724.14
2018-12-19T16:56:21.681Z,101725.98
2018-12-19T16:59:12.866Z,101729.17
2018-12-19T17:02:03.267Z,101732.99
2018-12-19T17:04:53.185Z,101736.30
2018-12-19T17:07:43.951Z,101737.28
2018-12-19T17:10:33.983Z,101734.33
2018-12-19T17:13:24.791Z,101731.50
2018-12-19T17:16:14.622Z,101734.97
2018-12-19T17:19:04.497Z,101733.45
2018-12-19T17:21:54.459Z,101734.19
2018-12-19T17:24:44.353Z,101745.78
2018-12-19T17:27:34.233Z,101749.12
2018-12-19T17:30:24.544Z,101743.05
2018-12-19T17:33:14.793Z,101737.20
2018-12-19T17:36:04.555Z,101744.25
2018-12-19T17:38:55.366Z,101740.97
2018-12-19T17:41:45.331Z,101737.05
2018-12-19T17:44:35.367Z,101742.75
2018-12-19T17:47:26.474Z,101745.58
2018-12-19T17:50:17.449Z,101742.75
2018-12-19T17:53:07.185Z,101748.63
2018-12-19T17:55:57.218Z,101746.13
2018-12-19T17:58:47.140Z,101750.34
2018-12-19T18:01:37.296Z,101749.34
2018-12-19T18:04:27.858Z,101749.27
2018-12-19T18:07:17.834Z,101753.78
2018-12-19T18:10:07.873Z,101754.47
2018-12-19T18:12:58.118Z,101756.64
2018-12-19T18:15:48.106Z,101764.07
2018-12-19T18:18:38.139Z,101764.23
2018-12-19T18:21:28.002Z,101760.92
2018-12-19T18:24:18.259Z,101760.64
2018-12-19T18:27:08.946Z,101761.16
2018-12-19T18:29:58.738Z,101762.73
2018-12-19T18:32:48.745Z,101765.27
2018-12-19T18:35:38.803Z,101766.73
2018-12-19T18:38:28.715Z,101768.00
2018-12-19T18:41:19.162Z,101772.73
2018-12-19T18:44:09.679Z,101769.63
2018-12-19T18:46:59.728Z,101770.95
2018-12-19T18:49:50.483Z,101764.98
2018-12-19T18:52:41.224Z,101773.02
2018-12-19T18:55:32.102Z,101775.57
2018-12-19T18:58:21.974Z,101771.19
2018-12-19T19:01:11.762Z,101769.30
2018-12-19T19:04:01.632Z,101763.86
2018-12-19T19:06:51.858Z,101764.87
2018-12-19T19:09:42.562Z,101774.28
2018-12-19T19:12:33.597Z,101774.06
2018-12-19T19:15:23.526Z,101772.86
2018-12-19T19:18:13.628Z,101775.10
2018-12-19T19:21:03.527Z,101768.45
2018-12-19T19:23:53.421Z,101771.23
2018-12-19T19:26:43.637Z,101769.91
2018-12-19T19:29:34.547Z,101777.48
2018-12-19T19:32:25.256Z,101778.82
2018-12-19T19:35:15.248Z,101785.47
2018-12-19T19:38:06.197Z,101778.48
2018-12-19T19:40:56.543Z,101790.02
2018-12-19T19:43:47.484Z,101788.85
2018-12-19T19:46:38.107Z,101792.23
2018-12-19T19:49:28.289Z,101790.94
2018-12-19T19:52:18.148Z,101793.63
2018-12-19T19:55:09.366Z,101795.08
2018-12-19T19:58:00.685Z,101794.95
2018-12-19T20:00:50.628Z,101801.30
2018-12-19T20:03:40.757Z,101799.33
2018-12-19T20:06:31.615Z,101798.30
2018-12-19T20:09:22.281Z,101803.62
2018-12-19T20:12:12.409Z,101793.75
2018-12-19T20:15:03.358Z,101796.91
2018-12-19T20:17:54.224Z,101800.15
2018-12-19T20:20:44.885Z,101798.64
2018-12-19T20:23:35.273Z,101803.87
2018-12-19T20:26:25.547Z,101803.05
2018-12-19T20:29:15.486Z,101807.49
2018-12-19T20:32:05.350Z,101813.44
2018-12-19T20:34:55.277Z,101811.42
2018-12-19T20:37:45.069Z,101812.42
2018-12-19T20:40:34.994Z,101808.28
2018-12-19T20:43:24.927Z,101809.27
2018-12-19T20:46:14.787Z,101806.62
2018-12-19T20:49:05.675Z,101815.83
2018-12-19T20:51:55.741Z,101818.37
2018-12-19T20:54:46.213Z,101815.59
2018-12-19T20:57:36.264Z,101824.83
2018-12-19T21:00:27.183Z,101823.56
2018-12-19T21:03:18.056Z,101821.88
2018-12-19T21:06:08.791Z,101819.91
2018-12-19T21:08:58.806Z,101831.48
2018-12-19T21:11:49.339Z,101831.66
2018-12-19T21:14:39.261Z,101832.63
2018-12-19T21:17:34.872Z,101819.64
2018-12-19T21:20:24.855Z,101829.70
2018-12-19T21:23:14.611Z,101826.98
2018-12-19T21:26:05.810Z,101823.63
2018-12-19T21:28:55.663Z,101825.80
2018-12-19T21:31:45.685Z,101837.91
2018-12-19T21:34:36.526Z,101827.13
2018-12-19T21:37:26.449Z,101822.75
2018-12-19T21:40:17.335Z,101834.78
2018-12-19T21:43:07.917Z,101825.05
2018-12-19T21:45:58.287Z,101822.63
2018-12-19T21:48:48.346Z,101829.70
2018-12-19T21:51:38.981Z,101823.33
2018-12-19T21:54:29.238Z,101822.06
2018-12-19T21:57:19.562Z,101821.81
2018-12-19T22:00:14.380Z,101816.80
2018-12-19T22:03:07.927Z,101811.95
2018-12-19T22:05:58.038Z,101815.46
2018-12-19T22:08:49.039Z,101815.07
2018-12-19T22:11:38.775Z,101816.41
2018-12-19T22:14:28.877Z,101813.23
2018-12-19T22:17:23.897Z,101815.64
2018-12-19T22:20:13.950Z,101814.89
2018-12-19T22:23:04.781Z,101818.12
2018-12-19T22:25:54.582Z,101814.56
2018-12-19T22:28:45.421Z,101820.78
2018-12-19T22:31:36.149Z,101817.97
2018-12-19T22:34:26.084Z,101814.62
2018-12-19T22:37:16.071Z,101811.53
2018-12-19T22:40:07.446Z,101816.34
2018-12-19T22:42:57.884Z,101812.07
2018-12-19T22:45:47.721Z,101807.27
2018-12-19T22:48:38.615Z,101809.11
2018-12-19T22:51:28.742Z,101810.84
2018-12-19T22:54:19.351Z,101800.20
2018-12-19T22:57:09.394Z,101799.62
2018-12-19T23:00:00.240Z,101806.33
2018-12-19T23:02:56.003Z,101799.16
2018-12-19T23:05:51.039Z,101799.45
2018-12-19T23:08:42.062Z,101802.17
2018-12-19T23:11:32.846Z,101804.70
2018-12-19T23:14:22.863Z,101803.05
2018-12-19T23:17:58.875Z,101799.11
2018-12-19T23:20:55.215Z,101802.98
2018-12-19T23:23:50.898Z,101801.08
2018-12-19T23:26:42.786Z,101800.57
2018-12-19T23:29:34.729Z,101807.42
2018-12-19T23:32:29.237Z,101803.37
2018-12-19T23:35:19.554Z,101806.39
2018-12-19T23:38:09.450Z,101805.88
2018-12-19T23:41:00.451Z,101805.23
2018-12-19T23:43:51.642Z,101804.88
2018-12-19T23:46:42.455Z,101802.86
2018-12-19T23:49:33.249Z,101809.99
2018-12-19T23:52:23.314Z,101806.45
2018-12-19T23:55:14.223Z,101813.67
2018-12-19T23:58:05.072Z,101818.08
